createdAt,value
2022-08-04T00:00:16.358Z,20.82
2022-08-04T00:01:16.782Z,20.86
2022-08-04T00:02:16.388Z,20.85
2022-08-04T00:03:16.827Z,20.85
2022-08-04T00:04:17.273Z,20.82
2022-08-04T00:05:16.707Z,20.83
2022-08-04T00:06:17.154Z,20.88
2022-08-04T00:07:16.604Z,20.86
2022-08-04T00:08:17.067Z,20.85
2022-08-04T00:09:16.521Z,20.83
2022-08-04T00:10:16.984Z,20.81
2022-08-04T00:11:16.493Z,20.79
2022-08-04T00:12:16.344Z,20.76
2022-08-04T00:13:16.793Z,20.72
2022-08-04T00:14:17.209Z,20.68
2022-08-04T00:15:16.922Z,20.67
2022-08-04T00:16:16.449Z,20.62
2022-08-04T00:17:16.879Z,20.61
2022-08-04T00:18:16.302Z,20.61
2022-08-04T00:19:16.721Z,20.61
2022-08-04T00:20:17.214Z,20.52
2022-08-04T00:21:16.686Z,20.52
2022-08-04T00:22:16.952Z,20.48
2022-08-04T00:23:16.421Z,20.46
2022-08-04T00:24:16.876Z,20.43
2022-08-04T00:25:16.334Z,20.46
2022-08-04T00:26:16.420Z,20.41
2022-08-04T00:27:16.896Z,20.44
2022-08-04T00:28:16.369Z,20.41
2022-08-04T00:29:16.813Z,20.36
2022-08-04T00:30:17.255Z,20.36
2022-08-04T00:31:16.714Z,20.31
2022-08-04T00:32:17.080Z,20.31
2022-08-04T00:33:17.054Z,20.30
2022-08-04T00:34:16.497Z,20.29
2022-08-04T00:35:16.931Z,20.29
2022-08-04T00:36:16.409Z,20.26
2022-08-04T00:37:16.869Z,20.20
2022-08-04T00:38:16.340Z,20.21
2022-08-04T00:39:16.855Z,20.21
2022-08-04T00:40:16.453Z,20.17
2022-08-04T00:41:16.904Z,20.17
2022-08-04T00:42:16.456Z,20.16
2022-08-04T00:43:16.895Z,20.15
2022-08-04T00:44:23.128Z,20.12
2022-08-04T00:45:16.518Z,20.10
2022-08-04T00:46:17.878Z,20.09
2022-08-04T00:47:16.566Z,20.08
2022-08-04T00:48:17.000Z,20.12
2022-08-04T00:49:16.442Z,20.10
2022-08-04T00:50:16.886Z,20.17
2022-08-04T00:51:16.327Z,20.23
2022-08-04T00:52:31.053Z,20.20
2022-08-04T00:53:16.622Z,20.19
2022-08-04T00:54:17.080Z,20.16
2022-08-04T00:55:16.532Z,20.10
2022-08-04T00:56:16.984Z,20.09
2022-08-04T00:57:30.199Z,20.06
2022-08-04T00:58:16.796Z,20.05
2022-08-04T00:59:17.210Z,20.05
2022-08-04T01:00:16.630Z,19.96
2022-08-04T01:01:17.074Z,19.98
2022-08-04T01:02:16.646Z,20.01
2022-08-04T01:03:17.071Z,20.01
2022-08-04T01:04:16.503Z,19.99
2022-08-04T01:05:16.967Z,19.95
2022-08-04T01:06:16.409Z,19.92
2022-08-04T01:07:16.864Z,19.86
2022-08-04T01:08:16.321Z,19.84
2022-08-04T01:09:21.191Z,19.81
2022-08-04T01:10:17.593Z,19.88
2022-08-04T01:11:16.310Z,19.92
2022-08-04T01:12:16.649Z,19.96
2022-08-04T01:13:17.074Z,19.96
2022-08-04T01:14:16.493Z,19.92
2022-08-04T01:15:16.908Z,19.91
2022-08-04T01:16:16.360Z,19.86
2022-08-04T01:17:16.772Z,19.84
2022-08-04T01:18:17.220Z,19.84
2022-08-04T01:19:16.656Z,19.84
2022-08-04T01:20:17.110Z,19.84
2022-08-04T01:21:16.579Z,19.79
2022-08-04T01:22:16.416Z,19.85
2022-08-04T01:23:16.868Z,19.85
2022-08-04T01:24:16.332Z,19.82
2022-08-04T01:25:16.866Z,19.81
2022-08-04T01:26:40.337Z,19.81
2022-08-04T01:27:16.785Z,19.78
2022-08-04T01:28:16.836Z,19.79
2022-08-04T01:29:17.125Z,19.81
2022-08-04T01:30:16.873Z,19.81
2022-08-04T01:31:16.290Z,19.85
2022-08-04T01:32:16.937Z,19.81
2022-08-04T01:33:16.384Z,19.78
2022-08-04T01:34:16.801Z,19.79
2022-08-04T01:35:21.707Z,19.78
2022-08-04T01:36:16.527Z,19.75
2022-08-04T01:37:17.086Z,19.75
2022-08-04T01:38:18.491Z,19.78
2022-08-04T01:39:16.577Z,19.78
2022-08-04T01:40:17.189Z,19.75
2022-08-04T01:41:16.648Z,19.72
2022-08-04T01:42:18.777Z,19.72
2022-08-04T01:43:16.883Z,19.69
2022-08-04T01:44:16.362Z,19.68
2022-08-04T01:45:16.817Z,19.68
2022-08-04T01:46:16.297Z,19.65
2022-08-04T01:47:16.739Z,19.65
2022-08-04T01:48:17.196Z,19.62
2022-08-04T01:49:16.657Z,19.60
2022-08-04T01:50:17.174Z,19.60
2022-08-04T01:51:16.690Z,19.53
2022-08-04T01:52:17.279Z,19.50
2022-08-04T01:53:16.726Z,19.50
2022-08-04T01:54:17.219Z,19.47
2022-08-04T01:55:16.614Z,19.41
2022-08-04T01:56:17.107Z,19.41
2022-08-04T01:57:37.358Z,19.41
2022-08-04T01:58:17.048Z,19.41
2022-08-04T01:59:16.474Z,19.41
2022-08-04T02:00:16.895Z,19.43
2022-08-04T02:01:16.360Z,19.40
2022-08-04T02:02:17.410Z,19.40
2022-08-04T02:03:17.125Z,19.40
2022-08-04T02:04:19.022Z,19.41
2022-08-04T02:05:17.003Z,19.39
2022-08-04T02:06:16.473Z,19.39
2022-08-04T02:07:17.158Z,19.31
2022-08-04T02:08:16.926Z,19.33
2022-08-04T02:09:16.392Z,19.36
2022-08-04T02:10:16.846Z,19.33
2022-08-04T02:11:16.293Z,19.34
2022-08-04T02:12:16.940Z,19.33
2022-08-04T02:13:16.355Z,19.33
2022-08-04T02:14:16.821Z,19.30
2022-08-04T02:15:17.261Z,19.33
2022-08-04T02:16:16.681Z,19.31
2022-08-04T02:17:17.097Z,19.31
2022-08-04T02:18:16.544Z,19.31
2022-08-04T02:19:17.006Z,19.30
2022-08-04T02:20:16.489Z,19.27
2022-08-04T02:21:16.927Z,19.25
2022-08-04T02:22:16.621Z,19.25
2022-08-04T02:23:17.057Z,19.25
2022-08-04T02:24:16.497Z,19.22
2022-08-04T02:25:16.980Z,19.25
2022-08-04T02:26:19.394Z,19.26
2022-08-04T02:27:16.445Z,19.23
2022-08-04T02:28:16.863Z,19.26
2022-08-04T02:29:16.333Z,19.25
2022-08-04T02:30:17.724Z,19.22
2022-08-04T02:31:17.103Z,19.22
2022-08-04T02:32:17.029Z,19.25
2022-08-04T02:33:16.504Z,19.26
2022-08-04T02:34:16.972Z,19.26
2022-08-04T02:35:16.455Z,19.25
2022-08-04T02:36:16.938Z,19.23
2022-08-04T02:37:16.421Z,19.22
2022-08-04T02:38:16.866Z,19.22
2022-08-04T02:39:16.486Z,19.25
2022-08-04T02:40:17.068Z,19.17
2022-08-04T02:41:16.492Z,19.17
2022-08-04T02:42:16.368Z,19.17
2022-08-04T02:43:16.815Z,19.13
2022-08-04T02:44:17.299Z,19.10
2022-08-04T02:45:16.727Z,19.09
2022-08-04T02:46:17.606Z,19.09
2022-08-04T02:47:16.665Z,19.05
2022-08-04T02:48:29.742Z,19.02
2022-08-04T02:49:16.969Z,19.03
2022-08-04T02:50:28.767Z,18.99
2022-08-04T02:51:16.793Z,18.96
2022-08-04T02:52:16.744Z,18.98
2022-08-04T02:53:17.084Z,18.95
2022-08-04T02:54:16.526Z,18.94
2022-08-04T02:55:16.908Z,18.95
2022-08-04T02:56:16.332Z,18.89
2022-08-04T02:57:16.768Z,18.86
2022-08-04T02:58:17.204Z,18.86
2022-08-04T02:59:16.633Z,18.91
2022-08-04T03:00:17.091Z,18.89
2022-08-04T03:01:16.607Z,18.91
2022-08-04T03:02:16.769Z,18.91
2022-08-04T03:03:17.219Z,18.86
2022-08-04T03:04:24.609Z,18.89
2022-08-04T03:05:16.893Z,18.85
2022-08-04T03:06:16.372Z,18.82
2022-08-04T03:07:16.907Z,18.84
2022-08-04T03:08:16.533Z,18.82
2022-08-04T03:09:16.982Z,18.79
2022-08-04T03:10:16.415Z,18.77
2022-08-04T03:11:16.861Z,18.78
2022-08-04T03:12:16.536Z,18.72
2022-08-04T03:13:16.966Z,18.72
2022-08-04T03:14:16.377Z,18.70
2022-08-04T03:15:16.799Z,18.67
2022-08-04T03:16:16.716Z,18.67
2022-08-04T03:17:17.140Z,18.63
2022-08-04T03:18:16.625Z,18.63
2022-08-04T03:19:17.087Z,18.58
2022-08-04T03:20:16.545Z,18.57
2022-08-04T03:21:16.997Z,18.53
2022-08-04T03:22:16.584Z,18.53
2022-08-04T03:23:17.051Z,18.54
2022-08-04T03:24:19.944Z,18.54
2022-08-04T03:25:16.850Z,18.51
2022-08-04T03:26:16.301Z,18.51
2022-08-04T03:27:16.758Z,18.50
2022-08-04T03:28:17.221Z,18.49
2022-08-04T03:29:23.647Z,18.47
2022-08-04T03:30:16.403Z,18.49
2022-08-04T03:31:16.842Z,18.42
2022-08-04T03:32:17.281Z,18.34
2022-08-04T03:33:16.760Z,18.32
2022-08-04T03:34:17.205Z,18.32
2022-08-04T03:35:22.730Z,18.33
2022-08-04T03:36:16.642Z,18.34
2022-08-04T03:37:17.097Z,18.32
2022-08-04T03:38:16.579Z,18.30
2022-08-04T03:39:17.045Z,18.30
2022-08-04T03:40:16.572Z,18.26
2022-08-04T03:41:17.008Z,18.29
2022-08-04T03:42:16.476Z,18.26
2022-08-04T03:43:56.490Z,18.27
2022-08-04T03:44:16.400Z,18.25
2022-08-04T03:45:17.422Z,18.25
2022-08-04T03:46:16.797Z,18.29
2022-08-04T03:47:17.279Z,18.32
2022-08-04T03:48:16.735Z,18.37
2022-08-04T03:49:17.212Z,18.40
2022-08-04T03:50:16.651Z,18.43
2022-08-04T03:51:32.341Z,18.42
2022-08-04T03:52:17.234Z,18.40
2022-08-04T03:53:16.719Z,18.37
2022-08-04T03:54:17.168Z,18.34
2022-08-04T03:55:16.589Z,18.30
2022-08-04T03:56:17.028Z,18.27
2022-08-04T03:57:16.459Z,18.29
2022-08-04T03:58:16.904Z,18.30
2022-08-04T03:59:16.347Z,18.29
2022-08-04T04:00:16.772Z,18.25
2022-08-04T04:01:17.237Z,18.26
2022-08-04T04:02:16.452Z,18.23
2022-08-04T04:03:26.798Z,18.22
2022-08-04T04:04:16.741Z,18.22
2022-08-04T04:05:17.229Z,18.20
2022-08-04T04:06:17.103Z,18.26
2022-08-04T04:07:17.523Z,18.26
2022-08-04T04:08:18.954Z,18.29
2022-08-04T04:09:20.472Z,18.32
2022-08-04T04:10:16.451Z,18.33
2022-08-04T04:11:16.660Z,18.34
2022-08-04T04:12:17.157Z,18.34
2022-08-04T04:13:16.603Z,18.37
2022-08-04T04:14:17.065Z,18.39
2022-08-04T04:15:16.572Z,18.37
2022-08-04T04:16:17.044Z,18.39
2022-08-04T04:17:16.528Z,18.39
2022-08-04T04:18:17.008Z,18.42
2022-08-04T04:19:16.465Z,18.44
2022-08-04T04:20:16.961Z,18.46
2022-08-04T04:21:16.451Z,18.50
2022-08-04T04:22:17.257Z,18.49
2022-08-04T04:23:16.668Z,18.49
2022-08-04T04:24:17.094Z,18.50
2022-08-04T04:25:16.521Z,18.51
2022-08-04T04:26:16.963Z,18.60
2022-08-04T04:27:16.384Z,18.63
2022-08-04T04:28:43.928Z,18.64
2022-08-04T04:29:16.340Z,18.70
2022-08-04T04:30:16.834Z,18.70
2022-08-04T04:31:16.541Z,18.72
2022-08-04T04:32:16.840Z,18.72
2022-08-04T04:33:17.287Z,18.81
2022-08-04T04:34:16.755Z,18.84
2022-08-04T04:35:17.228Z,18.86
2022-08-04T04:36:16.666Z,18.92
2022-08-04T04:37:17.086Z,18.95
2022-08-04T04:38:16.548Z,18.96
2022-08-04T04:39:17.025Z,19.02
2022-08-04T04:40:16.543Z,19.05
2022-08-04T04:41:16.975Z,19.14
2022-08-04T04:42:16.876Z,19.25
2022-08-04T04:43:16.307Z,19.29
2022-08-04T04:44:16.768Z,19.31
2022-08-04T04:45:17.232Z,19.41
2022-08-04T04:46:16.700Z,19.43
2022-08-04T04:47:17.167Z,19.50
2022-08-04T04:48:16.634Z,19.61
2022-08-04T04:49:17.089Z,19.67
2022-08-04T04:50:16.540Z,19.74
2022-08-04T04:51:16.971Z,19.82
2022-08-04T04:52:16.614Z,19.84
2022-08-04T04:53:17.046Z,19.91
2022-08-04T04:54:16.463Z,19.93
2022-08-04T04:55:16.915Z,19.99
2022-08-04T04:56:16.333Z,20.05
2022-08-04T04:57:16.764Z,20.15
2022-08-04T04:58:17.205Z,20.27
2022-08-04T04:59:16.667Z,20.31
2022-08-04T05:00:17.165Z,20.47
2022-08-04T05:01:16.644Z,20.61
2022-08-04T05:02:16.509Z,20.58
2022-08-04T05:03:16.958Z,20.65
2022-08-04T05:04:16.418Z,20.68
2022-08-04T05:05:16.871Z,20.74
2022-08-04T05:06:16.284Z,20.81
2022-08-04T05:07:16.715Z,20.85
2022-08-04T05:08:44.061Z,20.93
2022-08-04T05:09:16.627Z,20.93
2022-08-04T05:10:17.053Z,20.96
2022-08-04T05:11:16.527Z,21.05
2022-08-04T05:13:20.430Z,21.10
2022-08-04T05:14:33.454Z,21.19
2022-08-04T05:14:33.492Z,21.27
2022-08-04T05:15:16.553Z,21.29
2022-08-04T05:16:17.006Z,21.38
2022-08-04T05:17:16.451Z,21.41
2022-08-04T05:18:16.908Z,21.44
2022-08-04T05:19:16.396Z,21.55
2022-08-04T05:20:16.852Z,21.66
2022-08-04T05:21:16.295Z,21.68
2022-08-04T05:22:17.103Z,21.64
2022-08-04T05:23:16.519Z,21.66
2022-08-04T05:24:16.949Z,21.61
2022-08-04T05:25:16.400Z,21.68
2022-08-04T05:26:16.814Z,21.78
2022-08-04T05:27:17.287Z,21.89
2022-08-04T05:28:16.745Z,21.95
2022-08-04T05:29:17.244Z,22.07
2022-08-04T05:30:16.330Z,22.16
2022-08-04T05:31:16.797Z,22.13
2022-08-04T05:32:16.427Z,22.13
2022-08-04T05:38:24.086Z,22.60
2022-08-04T05:39:16.541Z,22.67
2022-08-04T05:40:17.047Z,22.74
2022-08-04T05:41:16.472Z,22.82
2022-08-04T05:42:17.039Z,22.89
2022-08-04T05:43:16.750Z,22.90
2022-08-04T05:44:17.232Z,22.93
2022-08-04T05:45:16.736Z,23.03
2022-08-04T05:46:17.199Z,22.85
2022-08-04T05:47:16.662Z,22.89
2022-08-04T05:48:17.149Z,23.07
2022-08-04T05:49:19.381Z,23.17
2022-08-04T05:50:16.736Z,23.23
2022-08-04T05:51:17.149Z,23.16
2022-08-04T05:52:16.445Z,23.17
2022-08-04T05:53:16.875Z,23.22
2022-08-04T05:54:16.294Z,23.37
2022-08-04T05:55:48.632Z,23.62
2022-08-04T05:56:17.222Z,23.71
2022-08-04T05:57:16.666Z,23.89
2022-08-04T05:58:17.151Z,24.07
2022-08-04T05:59:16.599Z,24.07
2022-08-04T06:00:38.682Z,24.23
2022-08-04T06:01:16.410Z,24.30
2022-08-04T06:02:17.213Z,24.40
2022-08-04T06:03:16.798Z,24.51
2022-08-04T06:04:17.217Z,24.59
2022-08-04T06:05:16.658Z,24.59
2022-08-04T06:06:16.390Z,24.54
2022-08-04T06:07:16.802Z,24.52
2022-08-04T06:08:17.256Z,24.72
2022-08-04T06:09:16.713Z,24.79
2022-08-04T06:10:17.269Z,24.90
2022-08-04T06:11:16.767Z,25.07
2022-08-04T06:12:16.328Z,25.14
2022-08-04T06:13:45.215Z,25.28
2022-08-04T06:14:16.321Z,25.33
2022-08-04T06:15:16.778Z,25.35
2022-08-04T06:16:18.064Z,25.44
2022-08-04T06:17:18.493Z,25.51
2022-08-04T06:18:34.258Z,25.61
2022-08-04T06:20:01.518Z,25.68
2022-08-04T06:20:19.827Z,25.72
2022-08-04T06:21:16.875Z,25.75
2022-08-04T06:22:16.861Z,25.78
2022-08-04T06:23:16.305Z,26.01
2022-08-04T06:24:16.795Z,26.11
2022-08-04T06:25:17.276Z,26.20
2022-08-04T06:26:16.755Z,26.30
2022-08-04T06:27:17.196Z,26.31
2022-08-04T06:28:16.646Z,26.42
2022-08-04T06:29:17.107Z,26.58
2022-08-04T06:30:16.821Z,26.73
2022-08-04T06:32:29.076Z,26.75
2022-08-04T06:32:29.309Z,26.75
2022-08-04T06:33:17.057Z,26.86
2022-08-04T06:34:16.484Z,26.96
2022-08-04T06:35:16.903Z,27.21
2022-08-04T06:36:16.311Z,27.38
2022-08-04T06:37:18.410Z,27.58
2022-08-04T06:38:17.260Z,27.93
2022-08-04T06:39:16.751Z,27.87
2022-08-04T06:40:30.201Z,27.93
2022-08-04T06:41:16.790Z,27.96
2022-08-04T06:42:21.487Z,28.00
2022-08-04T06:43:16.424Z,28.07
2022-08-04T06:44:16.902Z,28.30
2022-08-04T06:45:16.333Z,28.38
2022-08-04T06:46:16.779Z,28.49
2022-08-04T06:47:17.194Z,28.66
2022-08-04T06:48:16.607Z,28.76
2022-08-04T06:49:17.022Z,28.89
2022-08-04T06:51:23.881Z,29.21
2022-08-04T06:51:24.084Z,29.00
2022-08-04T06:52:16.476Z,29.42
2022-08-04T06:53:16.936Z,29.69
2022-08-04T06:54:16.394Z,29.73
2022-08-04T06:55:16.883Z,29.89
2022-08-04T06:56:16.364Z,29.99
2022-08-04T06:57:16.825Z,30.38
2022-08-04T06:58:17.320Z,30.65
2022-08-04T06:59:16.775Z,31.00
2022-08-04T07:00:17.241Z,31.41
2022-08-04T07:01:16.710Z,31.07
2022-08-04T07:02:16.367Z,31.01
2022-08-04T07:03:16.788Z,31.64
2022-08-04T07:04:17.224Z,32.24
2022-08-04T07:05:16.655Z,32.45
2022-08-04T07:06:17.296Z,32.96
2022-08-04T07:07:16.771Z,33.44
2022-08-04T07:08:17.259Z,33.54
2022-08-04T07:09:16.731Z,33.62
2022-08-04T07:10:17.883Z,33.34
2022-08-04T07:11:16.802Z,32.57
2022-08-04T07:12:16.814Z,33.28
2022-08-04T07:13:17.257Z,33.71
2022-08-04T07:14:16.716Z,33.80
2022-08-04T07:15:17.152Z,33.95
2022-08-04T07:16:16.574Z,33.92
2022-08-04T07:17:16.990Z,34.03
2022-08-04T07:18:16.448Z,34.44
2022-08-04T07:19:18.987Z,34.24
2022-08-04T07:20:16.640Z,34.16
2022-08-04T07:21:16.308Z,33.65
2022-08-04T07:22:18.158Z,33.76
2022-08-04T07:23:17.227Z,33.59
2022-08-04T07:24:16.988Z,33.95
2022-08-04T07:25:16.442Z,33.13
2022-08-04T07:26:16.912Z,32.99
2022-08-04T07:27:16.387Z,33.05
2022-08-04T07:28:16.846Z,32.11
2022-08-04T07:29:16.304Z,31.72
2022-08-04T07:30:16.766Z,32.23
2022-08-04T07:31:16.483Z,33.00
2022-08-04T07:32:16.383Z,33.24
2022-08-04T07:33:17.156Z,33.96
2022-08-04T07:34:20.858Z,34.47
2022-08-04T07:36:04.220Z,33.92
2022-08-04T07:36:17.154Z,34.10
2022-08-04T07:37:16.585Z,34.07
2022-08-04T07:38:16.339Z,33.23
2022-08-04T07:39:21.955Z,34.16
2022-08-04T07:40:16.945Z,34.51
2022-08-04T07:41:36.570Z,34.48
2022-08-04T07:42:16.648Z,34.65
2022-08-04T07:43:17.113Z,35.70
2022-08-04T07:44:16.555Z,35.92
2022-08-04T07:45:17.060Z,36.26
2022-08-04T07:46:17.014Z,36.43
2022-08-04T07:47:16.448Z,36.40
2022-08-04T07:48:16.901Z,35.61
2022-08-04T07:49:54.590Z,35.54
2022-08-04T07:50:16.866Z,35.62
2022-08-04T07:51:16.285Z,35.95
2022-08-04T07:52:16.997Z,35.74
2022-08-04T07:53:53.799Z,36.18
2022-08-04T07:54:16.916Z,36.98
2022-08-04T07:55:16.377Z,36.54
2022-08-04T07:56:16.857Z,36.60
2022-08-04T07:57:19.338Z,36.16
2022-08-04T07:58:16.799Z,36.34
2022-08-04T07:59:17.271Z,36.60
2022-08-04T08:00:16.729Z,37.50
2022-08-04T08:01:17.154Z,37.50
2022-08-04T08:02:16.803Z,37.70
2022-08-04T08:03:17.237Z,37.85
2022-08-04T08:04:16.412Z,37.75
2022-08-04T08:05:16.910Z,37.77
2022-08-04T08:06:18.328Z,38.37
2022-08-04T08:07:17.252Z,38.66
2022-08-04T08:08:16.693Z,38.22
2022-08-04T08:09:17.163Z,36.79
2022-08-04T08:10:16.640Z,37.25
2022-08-04T08:11:17.116Z,37.41
2022-08-04T08:12:34.877Z,37.88
2022-08-04T08:13:16.311Z,37.92
2022-08-04T08:14:16.742Z,38.09
2022-08-04T08:15:17.173Z,38.45
2022-08-04T08:16:16.601Z,38.37
2022-08-04T08:17:17.032Z,37.94
2022-08-04T08:18:16.442Z,37.46
2022-08-04T08:19:16.856Z,36.85
2022-08-04T08:20:29.288Z,37.30
2022-08-04T08:21:16.593Z,37.33
2022-08-04T08:22:16.422Z,37.67
2022-08-04T08:23:16.899Z,37.70
2022-08-04T08:24:16.351Z,37.23
2022-08-04T08:25:16.847Z,37.73
2022-08-04T08:26:16.296Z,38.32
2022-08-04T08:27:16.786Z,39.50
2022-08-04T08:28:17.303Z,39.74
2022-08-04T08:29:16.862Z,39.64
2022-08-04T08:30:16.304Z,37.85
2022-08-04T08:31:16.739Z,38.14
2022-08-04T08:32:16.595Z,37.98
2022-08-04T08:33:17.008Z,38.50
2022-08-04T08:34:21.679Z,38.05
2022-08-04T08:35:17.064Z,38.78
2022-08-04T08:36:16.496Z,39.18
2022-08-04T08:37:16.927Z,38.90
2022-08-04T08:38:16.382Z,39.33
2022-08-04T08:39:19.574Z,39.60
2022-08-04T08:40:17.047Z,39.04
2022-08-04T08:41:16.498Z,39.38
2022-08-04T08:42:16.349Z,39.61
2022-08-04T08:44:00.159Z,39.74
2022-08-04T08:44:19.362Z,39.91
2022-08-04T08:45:17.590Z,39.88
2022-08-04T08:46:24.701Z,40.14
2022-08-04T08:47:17.004Z,40.19
2022-08-04T08:48:16.481Z,40.11
2022-08-04T08:50:00.024Z,39.45
2022-08-04T08:50:16.403Z,39.26
2022-08-04T08:51:16.844Z,37.74
2022-08-04T08:52:16.851Z,38.87
2022-08-04T08:53:16.359Z,39.05
2022-08-04T08:54:16.814Z,39.71
2022-08-04T08:55:17.284Z,40.02
2022-08-04T08:56:16.741Z,40.04
2022-08-04T08:57:17.215Z,39.84
2022-08-04T08:58:16.686Z,40.35
2022-08-04T08:59:17.190Z,40.26
2022-08-04T09:00:16.642Z,40.01
2022-08-04T09:01:17.098Z,39.63
2022-08-04T09:02:16.858Z,40.05
2022-08-04T09:03:17.332Z,39.63
2022-08-04T09:04:22.879Z,39.11
2022-08-04T09:05:17.163Z,38.87
2022-08-04T09:06:16.611Z,39.00
2022-08-04T09:07:17.050Z,40.22
2022-08-04T09:08:16.503Z,40.34
2022-08-04T09:09:16.993Z,41.21
2022-08-04T09:10:16.503Z,39.40
2022-08-04T09:11:16.946Z,40.07
2022-08-04T09:12:16.705Z,41.01
2022-08-04T09:13:17.292Z,41.07
2022-08-04T09:14:16.747Z,40.93
2022-08-04T09:15:17.218Z,41.18
2022-08-04T09:16:16.648Z,41.00
2022-08-04T09:17:17.065Z,40.86
2022-08-04T09:18:16.491Z,40.66
2022-08-04T09:19:22.722Z,38.71
2022-08-04T09:20:16.820Z,39.28
2022-08-04T09:21:17.259Z,40.59
2022-08-04T09:22:17.111Z,41.12
2022-08-04T09:23:16.564Z,41.52
2022-08-04T09:24:34.679Z,42.14
2022-08-04T09:25:16.465Z,41.43
2022-08-04T09:26:16.906Z,41.59
2022-08-04T09:27:16.372Z,40.63
2022-08-04T09:28:27.011Z,40.63
2022-08-04T09:29:16.309Z,40.46
2022-08-04T09:30:16.808Z,40.19
2022-08-04T09:31:16.363Z,40.42
2022-08-04T09:32:16.888Z,40.71
2022-08-04T09:33:16.404Z,41.15
2022-08-04T09:34:16.904Z,41.26
2022-08-04T09:35:16.377Z,41.46
2022-08-04T09:36:25.557Z,40.73
2022-08-04T09:37:17.278Z,40.20
2022-08-04T09:38:16.741Z,40.31
2022-08-04T09:39:17.290Z,40.71
2022-08-04T09:40:29.456Z,41.25
2022-08-04T09:41:21.031Z,41.07
2022-08-04T09:42:16.799Z,41.00
2022-08-04T09:43:17.276Z,41.18
2022-08-04T09:44:42.473Z,41.36
2022-08-04T09:45:19.523Z,39.78
2022-08-04T09:46:16.583Z,39.87
2022-08-04T09:47:17.160Z,40.96
2022-08-04T09:48:16.380Z,41.82
2022-08-04T09:49:16.824Z,42.10
2022-08-04T09:50:17.259Z,40.91
2022-08-04T09:51:16.686Z,40.83
2022-08-04T09:52:17.212Z,40.71
2022-08-04T09:53:16.676Z,40.16
2022-08-04T09:54:29.832Z,40.32
2022-08-04T09:55:17.250Z,40.57
2022-08-04T09:56:16.714Z,40.62
2022-08-04T09:57:17.187Z,41.22
2022-08-04T09:58:16.652Z,41.18
2022-08-04T09:59:17.084Z,41.38
2022-08-04T10:00:16.524Z,41.43
2022-08-04T10:01:21.155Z,41.31
2022-08-04T10:02:16.791Z,40.23
2022-08-04T10:03:20.074Z,41.15
2022-08-04T10:04:17.003Z,40.57
2022-08-04T10:05:16.472Z,41.05
2022-08-04T10:06:16.930Z,40.87
2022-08-04T10:07:16.399Z,41.16
2022-08-04T10:08:17.274Z,41.36
2022-08-04T10:09:16.838Z,41.50
2022-08-04T10:10:16.337Z,40.35
2022-08-04T10:11:16.826Z,40.04
2022-08-04T10:12:16.401Z,38.30
2022-08-04T10:13:16.857Z,37.54
2022-08-04T10:14:19.071Z,38.70
2022-08-04T10:15:16.555Z,39.39
2022-08-04T10:16:17.022Z,39.92
2022-08-04T10:17:16.438Z,40.57
2022-08-04T10:18:16.868Z,40.60
2022-08-04T10:19:16.303Z,40.32
2022-08-04T10:20:16.761Z,40.15
2022-08-04T10:21:17.249Z,40.53
2022-08-04T10:22:29.421Z,40.66
2022-08-04T10:23:16.851Z,40.97
2022-08-04T10:24:16.320Z,40.97
2022-08-04T10:25:37.312Z,40.14
2022-08-04T10:26:16.306Z,41.12
2022-08-04T10:27:16.791Z,41.05
2022-08-04T10:28:17.231Z,40.87
2022-08-04T10:29:16.638Z,41.35
2022-08-04T10:30:17.091Z,41.33
2022-08-04T10:31:16.505Z,41.15
2022-08-04T10:32:16.336Z,41.22
2022-08-04T10:33:16.783Z,40.73
2022-08-04T10:34:17.199Z,40.63
2022-08-04T10:35:16.643Z,41.00
2022-08-04T10:36:17.178Z,41.25
2022-08-04T10:37:16.726Z,41.31
2022-08-04T10:38:17.215Z,41.61
2022-08-04T10:39:42.436Z,41.86
2022-08-04T10:40:17.183Z,41.77
2022-08-04T10:41:16.680Z,41.49
2022-08-04T10:42:16.409Z,41.66
2022-08-04T10:43:20.658Z,41.00
2022-08-04T10:44:16.453Z,40.77
2022-08-04T10:45:16.892Z,40.94
2022-08-04T10:46:16.317Z,41.15
2022-08-04T10:47:16.734Z,40.76
2022-08-04T10:48:17.200Z,40.97
2022-08-04T10:49:16.500Z,40.97
2022-08-04T10:50:17.116Z,40.29
2022-08-04T10:51:16.579Z,40.77
2022-08-04T10:52:17.165Z,40.84
2022-08-04T10:53:16.604Z,40.79
2022-08-04T10:54:17.065Z,40.83
2022-08-04T10:55:18.284Z,40.69
2022-08-04T10:56:16.989Z,40.42
2022-08-04T10:57:16.623Z,40.69
2022-08-04T10:58:17.079Z,41.00
2022-08-04T10:59:16.503Z,41.26
2022-08-04T11:00:16.934Z,41.07
2022-08-04T11:01:51.172Z,41.46
2022-08-04T11:02:16.836Z,41.72
2022-08-04T11:03:17.487Z,41.69
2022-08-04T11:04:26.936Z,41.52
2022-08-04T11:05:16.378Z,41.35
2022-08-04T11:06:16.839Z,40.39
2022-08-04T11:07:16.308Z,40.69
2022-08-04T11:08:20.649Z,40.96
2022-08-04T11:09:16.398Z,40.35
2022-08-04T11:10:16.872Z,40.64
2022-08-04T11:11:16.303Z,40.49
2022-08-04T11:12:16.932Z,40.28
2022-08-04T11:13:22.291Z,40.14
2022-08-04T11:14:16.548Z,40.32
2022-08-04T11:15:16.992Z,39.46
2022-08-04T11:16:16.422Z,38.82
2022-08-04T11:17:16.850Z,37.65
2022-08-04T11:18:17.363Z,39.11
2022-08-04T11:19:16.849Z,39.80
2022-08-04T11:20:34.383Z,40.02
2022-08-04T11:21:17.210Z,40.26
2022-08-04T11:22:16.542Z,40.52
2022-08-04T11:23:17.018Z,39.97
2022-08-04T11:24:16.468Z,40.22
2022-08-04T11:25:16.940Z,40.28
2022-08-04T11:26:16.396Z,39.09
2022-08-04T11:27:16.812Z,39.61
2022-08-04T11:28:17.278Z,39.01
2022-08-04T11:29:16.691Z,39.78
2022-08-04T11:30:17.117Z,40.20
2022-08-04T11:31:16.531Z,40.25
2022-08-04T11:32:16.432Z,40.57
2022-08-04T11:33:16.868Z,40.66
2022-08-04T11:34:16.339Z,41.05
2022-08-04T11:35:16.803Z,40.20
2022-08-04T11:36:17.293Z,39.87
2022-08-04T11:37:16.829Z,39.05
2022-08-04T11:38:16.353Z,39.53
2022-08-04T11:39:16.862Z,40.08
2022-08-04T11:40:16.482Z,39.68
2022-08-04T11:41:16.917Z,38.87
2022-08-04T11:42:17.269Z,38.90
2022-08-04T11:43:16.704Z,39.70
2022-08-04T11:44:17.153Z,39.88
2022-08-04T11:45:16.594Z,40.15
2022-08-04T11:46:17.044Z,39.97
2022-08-04T11:47:16.493Z,39.95
2022-08-04T11:48:16.921Z,40.20
2022-08-04T11:49:16.378Z,40.53
2022-08-04T11:50:16.909Z,40.45
2022-08-04T11:51:16.362Z,40.19
2022-08-04T11:52:17.726Z,40.01
2022-08-04T11:53:17.172Z,39.59
2022-08-04T11:54:16.643Z,39.42
2022-08-04T11:55:17.157Z,39.12
2022-08-04T11:56:36.316Z,38.22
2022-08-04T11:57:16.459Z,37.84
2022-08-04T11:58:16.892Z,37.78
2022-08-04T11:59:16.316Z,37.36
2022-08-04T12:00:16.738Z,37.28
2022-08-04T12:01:17.291Z,36.91
2022-08-04T12:02:20.631Z,36.85
2022-08-04T12:03:16.803Z,36.77
2022-08-04T12:04:16.312Z,36.49
2022-08-04T12:05:23.368Z,36.33
2022-08-04T12:06:16.826Z,36.19
2022-08-04T12:07:31.792Z,36.03
2022-08-04T12:08:16.744Z,35.88
2022-08-04T12:09:17.192Z,35.88
2022-08-04T12:10:16.630Z,35.72
2022-08-04T12:11:17.128Z,35.58
2022-08-04T12:12:16.504Z,35.60
2022-08-04T12:13:16.958Z,35.53
2022-08-04T12:14:16.391Z,35.37
2022-08-04T12:15:16.822Z,35.38
2022-08-04T12:16:17.263Z,35.19
2022-08-04T12:17:16.684Z,35.10
2022-08-04T12:18:17.154Z,35.09
2022-08-04T12:19:16.958Z,35.03
2022-08-04T12:20:29.997Z,34.96
2022-08-04T12:21:17.177Z,34.99
2022-08-04T12:22:16.839Z,35.12
2022-08-04T12:23:16.913Z,35.20
2022-08-04T12:24:16.410Z,35.19
2022-08-04T12:25:16.883Z,35.13
2022-08-04T12:26:16.320Z,35.03
2022-08-04T12:27:16.755Z,34.98
2022-08-04T12:28:17.204Z,34.98
2022-08-04T12:29:16.682Z,34.95
2022-08-04T12:30:54.371Z,34.96
2022-08-04T12:31:16.612Z,34.89
2022-08-04T12:32:16.718Z,34.86
2022-08-04T12:33:17.771Z,34.77
2022-08-04T12:34:16.714Z,34.69
2022-08-04T12:35:17.148Z,34.66
2022-08-04T12:36:20.591Z,34.72
2022-08-04T12:37:18.815Z,34.78
2022-08-04T12:38:17.136Z,34.93
2022-08-04T12:39:16.671Z,34.86
2022-08-04T12:40:21.486Z,34.83
2022-08-04T12:41:16.470Z,34.91
2022-08-04T12:42:20.976Z,34.92
2022-08-04T12:43:17.046Z,34.89
2022-08-04T12:44:33.237Z,34.74
2022-08-04T12:45:16.901Z,34.48
2022-08-04T12:46:16.344Z,34.37
2022-08-04T12:47:25.967Z,34.33
2022-08-04T12:48:21.006Z,34.59
2022-08-04T12:49:17.130Z,34.75
2022-08-04T12:50:16.593Z,34.95
2022-08-04T12:51:31.383Z,35.05
2022-08-04T12:52:16.590Z,34.98
2022-08-04T12:53:19.616Z,34.95
2022-08-04T12:54:16.605Z,35.02
2022-08-04T12:55:17.039Z,35.09
2022-08-04T12:56:16.478Z,35.08
2022-08-04T12:57:16.939Z,35.00